Ostrica, Louisiana
Current Conditions -  °F | °C
As of 2:51 PM on Sunday 23 Nov 2014 (Local Time) from KBVE Reporting Station
Few Clouds Few Clouds  
Wind Chill: 70°   Ceiling: Unl
Heat Index: 70°   Visibility: 8mi
Dew Point: 65°   Wind: 16mph
Humidity: 84%   Direction: 210°SSW
Pressure: 29.69"   Gusts: 24mph
Location:  29.2996°N, 89.4367°W
Report Text: KBVE 232051Z AUTO 21014G21KT 8SM FEW080 21/18 A2969 RMK AO2 SLP055 T02110183 55019
Loading
Personal Weather Stations






























Interactive Weather Map New forecast layout! Learn more

10-Day Weather Forecast

Advertisements
Track Severe Weather on mobile